createdAt,value
2023-07-06T00:00:30.628Z,100167.40
2023-07-06T00:03:20.549Z,100172.80
2023-07-06T00:05:50.382Z,100174.80
2023-07-06T00:08:20.092Z,100172.40
2023-07-06T00:10:50.874Z,100180.20
2023-07-06T00:13:21.320Z,100177.00
2023-07-06T00:15:52.113Z,100180.20
2023-07-06T00:18:22.404Z,100180.20
2023-07-06T00:20:52.032Z,100176.00
2023-07-06T00:23:24.329Z,100176.60
2023-07-06T00:25:54.290Z,100182.60
2023-07-06T00:28:27.301Z,100184.40
2023-07-06T00:31:07.583Z,100185.80
2023-07-06T00:33:37.882Z,100193.20
2023-07-06T00:36:07.823Z,100188.60
2023-07-06T00:38:37.553Z,100190.80
2023-07-06T00:41:08.666Z,100195.40
2023-07-06T00:43:57.149Z,100188.00
2023-07-06T00:46:41.113Z,100183.40
2023-07-06T00:49:16.252Z,100188.60
2023-07-06T00:51:46.333Z,100189.00
2023-07-06T00:54:22.003Z,100192.20
2023-07-06T00:56:52.832Z,100197.00
2023-07-06T00:59:27.428Z,100200.60
2023-07-06T01:01:59.825Z,100201.00
2023-07-06T01:04:31.997Z,100206.20
2023-07-06T01:07:02.633Z,100208.40
2023-07-06T01:09:33.185Z,100205.40
2023-07-06T01:12:04.252Z,100207.60
2023-07-06T01:14:50.434Z,100207.00
2023-07-06T01:17:48.255Z,100203.00
2023-07-06T01:20:41.261Z,100208.00
2023-07-06T01:24:03.081Z,100211.20
2023-07-06T01:27:28.626Z,100210.60
2023-07-06T01:33:44.296Z,100210.60
2023-07-06T01:36:26.768Z,100204.20
2023-07-06T01:39:15.984Z,100207.60
2023-07-06T01:41:47.780Z,100210.80
2023-07-06T01:44:19.020Z,100204.80
2023-07-06T01:46:54.528Z,100210.80
2023-07-06T01:49:24.604Z,100210.60
2023-07-06T01:52:16.840Z,100210.00
2023-07-06T01:55:09.743Z,100216.00
2023-07-06T01:58:01.156Z,100211.20
2023-07-06T02:00:37.831Z,100205.80
2023-07-06T02:03:10.944Z,100206.80
2023-07-06T02:05:45.128Z,100209.20
2023-07-06T02:08:16.112Z,100213.00
2023-07-06T02:10:46.925Z,100212.80
2023-07-06T02:13:17.390Z,100215.60
2023-07-06T02:15:47.364Z,100219.40
2023-07-06T02:18:17.887Z,100225.60
2023-07-06T02:20:49.129Z,100223.00
2023-07-06T02:23:20.087Z,100224.40
2023-07-06T02:25:49.863Z,100225.40
2023-07-06T02:28:21.411Z,100225.40
2023-07-06T02:30:53.929Z,100227.60
2023-07-06T02:33:25.226Z,100227.60
2023-07-06T02:35:55.268Z,100231.60
2023-07-06T02:38:25.513Z,100234.00
2023-07-06T02:40:54.984Z,100236.60
2023-07-06T02:43:25.776Z,100238.80
2023-07-06T02:45:55.615Z,100241.40
2023-07-06T02:48:25.676Z,100239.80
2023-07-06T02:50:58.738Z,100245.00
2023-07-06T02:53:28.628Z,100247.60
2023-07-06T02:55:59.389Z,100252.40
2023-07-06T02:58:29.375Z,100253.20
2023-07-06T03:00:58.935Z,100260.80
2023-07-06T03:03:28.831Z,100256.80
2023-07-06T03:06:02.399Z,100249.20
2023-07-06T03:08:32.158Z,100246.00
2023-07-06T03:11:01.930Z,100256.80
2023-07-06T03:13:31.923Z,100257.40
2023-07-06T03:16:03.887Z,100254.60
2023-07-06T03:18:33.890Z,100248.40
2023-07-06T03:21:03.564Z,100240.80
2023-07-06T03:23:32.990Z,100242.40
2023-07-06T03:26:02.488Z,100242.60
2023-07-06T03:28:32.045Z,100247.80
2023-07-06T03:31:01.462Z,100251.80
2023-07-06T03:33:31.088Z,100253.40
2023-07-06T03:36:01.149Z,100261.20
2023-07-06T03:38:30.978Z,100264.80
2023-07-06T03:41:04.575Z,100268.80
2023-07-06T03:43:35.004Z,100275.20
2023-07-06T03:46:04.729Z,100272.40
2023-07-06T03:48:34.309Z,100274.20
2023-07-06T03:51:08.028Z,100282.00
2023-07-06T03:54:07.039Z,100291.40
2023-07-06T03:56:38.179Z,100287.20
2023-07-06T03:59:08.794Z,100294.20
2023-07-06T04:01:38.374Z,100298.60
2023-07-06T04:04:09.120Z,100296.60
2023-07-06T04:06:41.910Z,100299.20
2023-07-06T04:09:12.538Z,100293.00
2023-07-06T04:11:42.785Z,100296.20
2023-07-06T04:14:13.891Z,100301.60
2023-07-06T04:16:43.603Z,100297.00
2023-07-06T04:19:13.351Z,100299.60
2023-07-06T04:21:42.748Z,100311.40
2023-07-06T04:24:12.222Z,100314.20
2023-07-06T04:26:45.864Z,100311.20
2023-07-06T04:29:16.305Z,100311.40
2023-07-06T04:31:46.962Z,100314.60
2023-07-06T04:34:17.300Z,100324.00
2023-07-06T04:36:46.754Z,100320.40
2023-07-06T04:39:16.227Z,100325.00
2023-07-06T04:41:45.635Z,100336.20
2023-07-06T04:44:16.362Z,100334.20
2023-07-06T04:46:46.500Z,100335.00
2023-07-06T04:49:16.058Z,100332.00
2023-07-06T04:51:45.567Z,100335.40
2023-07-06T04:54:15.010Z,100338.80
2023-07-06T04:56:44.434Z,100333.80
2023-07-06T04:59:13.893Z,100337.20
2023-07-06T05:01:43.376Z,100342.00
2023-07-06T05:04:13.177Z,100342.00
2023-07-06T05:06:42.876Z,100344.40
2023-07-06T05:09:12.996Z,100352.20
2023-07-06T05:11:42.395Z,100349.40
2023-07-06T05:14:11.782Z,100355.80
2023-07-06T05:16:41.290Z,100364.20
2023-07-06T05:19:10.869Z,100373.80
2023-07-06T05:21:40.692Z,100373.60
2023-07-06T05:24:11.024Z,100374.60
2023-07-06T05:26:40.609Z,100376.20
2023-07-06T05:29:10.394Z,100373.20
2023-07-06T05:31:40.399Z,100370.60
2023-07-06T05:34:09.790Z,100370.40
2023-07-06T05:36:39.331Z,100365.40
2023-07-06T05:39:09.512Z,100367.40
2023-07-06T05:41:39.117Z,100369.60
2023-07-06T05:44:12.010Z,100367.20
2023-07-06T05:46:41.583Z,100367.80
2023-07-06T05:49:11.148Z,100372.60
2023-07-06T05:51:41.003Z,100379.20
2023-07-06T05:54:10.486Z,100385.00
2023-07-06T05:56:40.939Z,100392.20
2023-07-06T05:59:10.419Z,100388.20
2023-07-06T06:01:40.225Z,100388.20
2023-07-06T06:04:09.831Z,100384.00
2023-07-06T06:06:51.103Z,100382.40
2023-07-06T06:09:22.965Z,100376.20
2023-07-06T06:11:52.698Z,100374.20
2023-07-06T06:14:22.355Z,100381.60
2023-07-06T06:16:51.992Z,100382.60
2023-07-06T06:19:25.723Z,100382.60
2023-07-06T06:21:56.960Z,100385.40
2023-07-06T06:24:26.696Z,100384.80
2023-07-06T06:26:56.255Z,100381.40
2023-07-06T06:29:27.810Z,100379.40
2023-07-06T06:32:00.862Z,100379.20
2023-07-06T06:35:16.334Z,100386.40
2023-07-06T06:38:04.242Z,100391.00
2023-07-06T06:40:37.339Z,100394.80
2023-07-06T06:43:07.770Z,100399.60
2023-07-06T06:45:37.262Z,100401.40
2023-07-06T06:48:08.655Z,100399.40
2023-07-06T06:50:38.106Z,100404.40
2023-07-06T06:53:07.575Z,100406.40
2023-07-06T06:55:37.118Z,100410.40
2023-07-06T06:58:06.892Z,100412.00
2023-07-06T07:00:40.326Z,100409.80
2023-07-06T07:03:14.155Z,100411.40
2023-07-06T07:05:43.646Z,100410.60
2023-07-06T07:08:13.277Z,100417.20
2023-07-06T07:10:42.663Z,100409.80
2023-07-06T07:13:13.108Z,100412.20
2023-07-06T07:16:19.937Z,100412.80
2023-07-06T07:19:09.378Z,100412.20
2023-07-06T07:22:35.755Z,100416.20
2023-07-06T07:25:08.029Z,100414.80
2023-07-06T07:27:44.537Z,100416.60
2023-07-06T07:30:15.426Z,100411.60
2023-07-06T07:32:48.037Z,100414.00
2023-07-06T07:35:20.907Z,100407.60
2023-07-06T07:37:52.523Z,100409.40
2023-07-06T07:40:23.696Z,100406.00
2023-07-06T07:42:54.324Z,100413.80
2023-07-06T07:45:24.773Z,100411.40
2023-07-06T07:48:00.736Z,100419.40
2023-07-06T07:50:33.173Z,100416.20
2023-07-06T07:53:03.021Z,100415.40
2023-07-06T07:55:32.586Z,100413.60
2023-07-06T07:58:04.275Z,100408.60
2023-07-06T08:00:35.534Z,100409.80
2023-07-06T08:03:06.208Z,100414.40
2023-07-06T08:05:39.825Z,100413.00
2023-07-06T08:08:14.067Z,100412.00
2023-07-06T08:10:43.890Z,100413.40
2023-07-06T08:13:13.897Z,100411.40
2023-07-06T08:15:45.052Z,100417.80
2023-07-06T08:18:16.141Z,100416.60
2023-07-06T08:21:23.172Z,100411.80
2023-07-06T08:23:47.591Z,100413.40
2023-07-06T08:26:18.297Z,100412.20
2023-07-06T08:28:49.106Z,100413.80
2023-07-06T08:31:25.500Z,100413.20
2023-07-06T08:34:01.334Z,100415.40
2023-07-06T08:36:31.409Z,100415.60
2023-07-06T08:39:01.766Z,100414.00
2023-07-06T08:41:39.916Z,100416.80
2023-07-06T08:44:16.935Z,100419.40
2023-07-06T08:46:50.379Z,100427.20
2023-07-06T08:49:58.064Z,100416.80
2023-07-06T08:52:28.644Z,100417.20
2023-07-06T08:54:58.943Z,100416.40
2023-07-06T08:57:32.856Z,100418.60
2023-07-06T09:00:03.594Z,100415.40
2023-07-06T09:02:35.303Z,100417.00
2023-07-06T09:05:16.254Z,100408.60
2023-07-06T09:07:49.090Z,100412.40
2023-07-06T09:10:25.634Z,100405.00
2023-07-06T09:13:27.394Z,100417.20
2023-07-06T09:16:03.854Z,100414.40
2023-07-06T09:18:33.746Z,100414.20
2023-07-06T09:21:04.304Z,100417.20
2023-07-06T09:23:35.311Z,100414.80
2023-07-06T09:26:32.102Z,100420.40
2023-07-06T09:29:23.670Z,100419.80
2023-07-06T09:32:15.627Z,100417.60
2023-07-06T09:34:49.743Z,100422.60
2023-07-06T09:37:31.849Z,100418.60
2023-07-06T09:43:05.365Z,100427.60
2023-07-06T09:45:36.014Z,100425.40
2023-07-06T09:48:23.186Z,100420.60
2023-07-06T09:51:20.225Z,100425.20
2023-07-06T09:53:55.813Z,100430.40
2023-07-06T09:56:26.100Z,100429.20
2023-07-06T09:58:55.937Z,100426.40
2023-07-06T10:01:40.241Z,100423.40
2023-07-06T10:04:44.979Z,100437.80
2023-07-06T10:07:31.329Z,100433.80
2023-07-06T10:10:20.929Z,100435.40
2023-07-06T10:13:03.897Z,100430.60
2023-07-06T10:15:51.741Z,100429.60
2023-07-06T10:18:43.933Z,100427.20
2023-07-06T10:21:38.643Z,100429.60
2023-07-06T10:24:33.553Z,100432.00
2023-07-06T10:27:18.960Z,100426.20
2023-07-06T10:29:59.012Z,100426.60
2023-07-06T10:32:42.054Z,100430.20
2023-07-06T10:35:26.224Z,100430.40
2023-07-06T10:37:58.357Z,100427.20
2023-07-06T10:40:30.370Z,100422.40
2023-07-06T10:43:23.537Z,100415.20
2023-07-06T10:45:56.930Z,100430.80
2023-07-06T10:48:34.601Z,100419.00
2023-07-06T10:51:23.272Z,100418.40
2023-07-06T10:54:17.662Z,100422.40
2023-07-06T10:57:01.121Z,100422.00
2023-07-06T10:59:41.044Z,100425.80
2023-07-06T11:02:24.219Z,100433.60
2023-07-06T11:05:07.781Z,100434.20
2023-07-06T11:07:46.503Z,100440.40
2023-07-06T11:10:49.111Z,100436.80
2023-07-06T11:13:26.768Z,100428.20
2023-07-06T11:16:08.295Z,100427.00
2023-07-06T11:18:47.574Z,100424.40
2023-07-06T11:21:43.789Z,100426.00
2023-07-06T11:24:29.885Z,100434.00
2023-07-06T11:27:33.736Z,100436.80
2023-07-06T11:30:18.387Z,100426.80
2023-07-06T11:33:14.269Z,100428.40
2023-07-06T11:36:02.873Z,100415.60
2023-07-06T11:39:01.906Z,100343.20
2023-07-06T11:41:45.542Z,100353.40
2023-07-06T11:44:47.100Z,100425.40
2023-07-06T11:47:49.287Z,100431.40
2023-07-06T11:50:19.175Z,100364.40
2023-07-06T11:53:10.186Z,100314.40
2023-07-06T11:55:52.107Z,100305.20
2023-07-06T11:58:44.533Z,100301.60
2023-07-06T12:01:34.920Z,100290.20
2023-07-06T12:04:16.079Z,100306.60
2023-07-06T12:06:47.355Z,100307.80
2023-07-06T12:09:23.963Z,100319.60
2023-07-06T12:12:07.685Z,100344.80
2023-07-06T12:14:37.755Z,100357.40
2023-07-06T12:17:12.149Z,100429.40
2023-07-06T12:19:42.346Z,100432.00
2023-07-06T12:22:17.753Z,100429.80
2023-07-06T12:24:48.401Z,100410.40
2023-07-06T12:27:21.780Z,100377.40
2023-07-06T12:30:06.891Z,100382.00
2023-07-06T12:32:38.344Z,100379.40
2023-07-06T12:35:12.848Z,100380.80
2023-07-06T12:37:45.174Z,100380.20
2023-07-06T12:40:23.633Z,100394.80
2023-07-06T12:42:54.593Z,100377.20
2023-07-06T12:45:27.464Z,100374.60
2023-07-06T12:48:01.248Z,100376.80
2023-07-06T12:50:40.767Z,100374.40
2023-07-06T12:53:37.665Z,100380.00
2023-07-06T12:56:15.546Z,100381.00
2023-07-06T12:58:59.922Z,100382.80
2023-07-06T13:01:36.348Z,100397.40
2023-07-06T13:04:11.775Z,100406.40
2023-07-06T13:06:48.353Z,100407.40
2023-07-06T13:09:22.533Z,100405.60
2023-07-06T13:11:59.808Z,100408.40
2023-07-06T13:14:39.577Z,100406.00
2023-07-06T13:17:27.818Z,100404.60
2023-07-06T13:19:58.044Z,100404.60
2023-07-06T13:22:29.661Z,100398.60
2023-07-06T13:25:00.629Z,100402.20
2023-07-06T13:27:33.175Z,100400.80
2023-07-06T13:30:09.055Z,100406.40
2023-07-06T13:32:40.599Z,100405.60
2023-07-06T13:35:13.903Z,100403.40
2023-07-06T13:37:49.674Z,100400.20
2023-07-06T13:40:22.227Z,100394.60
2023-07-06T13:42:53.019Z,100371.40
2023-07-06T13:45:40.120Z,100375.20
2023-07-06T13:48:29.598Z,100371.80
2023-07-06T13:51:07.433Z,100378.20
2023-07-06T13:53:42.301Z,100371.20
2023-07-06T13:56:16.116Z,100375.40
2023-07-06T13:58:47.069Z,100401.80
2023-07-06T14:01:22.097Z,100401.20
2023-07-06T14:03:54.365Z,100402.20
2023-07-06T14:06:24.888Z,100399.20
2023-07-06T14:08:54.599Z,100389.40
2023-07-06T14:11:26.999Z,100404.20
2023-07-06T14:13:57.130Z,100404.60
2023-07-06T14:16:30.271Z,100405.80
2023-07-06T14:19:00.238Z,100364.60
2023-07-06T14:21:34.428Z,100387.60
2023-07-06T14:24:04.916Z,100371.20
2023-07-06T14:26:34.688Z,100372.00
2023-07-06T14:29:08.250Z,100369.40
2023-07-06T14:31:39.228Z,100397.40
2023-07-06T14:34:10.200Z,100373.40
2023-07-06T14:36:47.199Z,100372.00
2023-07-06T14:39:19.397Z,100417.00
2023-07-06T14:42:11.812Z,100413.60
2023-07-06T14:44:46.619Z,100412.40
2023-07-06T14:47:22.948Z,100412.20
2023-07-06T14:49:54.302Z,100369.20
2023-07-06T14:52:28.680Z,100409.00
2023-07-06T14:55:15.749Z,100407.60
2023-07-06T14:57:45.524Z,100409.60
2023-07-06T15:00:17.984Z,100410.80
2023-07-06T15:02:51.102Z,100415.40
2023-07-06T15:05:21.539Z,100409.00
2023-07-06T15:07:51.232Z,100405.80
2023-07-06T15:10:21.339Z,100404.80
2023-07-06T15:12:50.919Z,100393.40
2023-07-06T15:15:22.953Z,100386.40
2023-07-06T15:17:52.515Z,100358.00
2023-07-06T15:20:22.602Z,100356.20
2023-07-06T15:22:56.032Z,100407.80
2023-07-06T15:25:25.700Z,100408.60
2023-07-06T15:27:56.040Z,100410.80
2023-07-06T15:30:26.630Z,100384.20
2023-07-06T15:32:56.174Z,100354.20
2023-07-06T15:35:41.616Z,100355.20
2023-07-06T15:38:36.292Z,100355.00
2023-07-06T15:41:07.914Z,100382.60
2023-07-06T15:43:37.434Z,100404.00
2023-07-06T15:46:07.301Z,100403.40
2023-07-06T15:48:37.277Z,100402.00
2023-07-06T15:51:07.907Z,100404.80
2023-07-06T15:53:37.864Z,100409.80
2023-07-06T15:56:07.740Z,100406.00
2023-07-06T15:58:39.815Z,100404.60
2023-07-06T16:01:15.368Z,100406.40
2023-07-06T16:04:30.995Z,100404.60
2023-07-06T16:07:05.166Z,100343.80
2023-07-06T16:09:39.332Z,100401.00
2023-07-06T16:12:44.915Z,100405.60
2023-07-06T16:15:14.992Z,100408.40
2023-07-06T16:17:44.963Z,100409.40
2023-07-06T16:20:15.993Z,100412.00
2023-07-06T16:22:45.886Z,100407.80
2023-07-06T16:25:15.947Z,100409.00
2023-07-06T16:28:03.474Z,100412.60
2023-07-06T16:30:46.563Z,100408.80
2023-07-06T16:33:27.015Z,100408.00
2023-07-06T16:36:03.056Z,100409.40
2023-07-06T16:41:15.056Z,100408.20
2023-07-06T16:44:16.133Z,100403.40
2023-07-06T16:47:31.777Z,100404.20
2023-07-06T16:50:47.958Z,100409.60
2023-07-06T16:54:03.391Z,100396.60
2023-07-06T17:00:19.123Z,100312.20
2023-07-06T17:09:47.483Z,100258.40
2023-07-06T17:15:46.522Z,100351.20
2023-07-06T17:18:58.422Z,100357.20
2023-07-06T17:22:13.882Z,100366.00
2023-07-06T17:25:14.040Z,100364.80
2023-07-06T17:29:02.772Z,100369.20
2023-07-06T17:31:46.513Z,100372.20
2023-07-06T17:34:25.484Z,100372.80
2023-07-06T17:37:00.376Z,100400.00
2023-07-06T17:39:34.121Z,100435.00
2023-07-06T17:42:15.323Z,100436.40
2023-07-06T17:44:50.397Z,100436.40
2023-07-06T17:47:24.293Z,100437.20
2023-07-06T17:50:00.814Z,100440.60
2023-07-06T17:52:54.469Z,100441.60
2023-07-06T17:55:38.279Z,100438.20
2023-07-06T17:58:15.428Z,100442.20
2023-07-06T18:01:11.497Z,100445.40
2023-07-06T18:03:46.787Z,100445.60
2023-07-06T18:06:22.875Z,100448.40
2023-07-06T18:09:03.848Z,100449.00
2023-07-06T18:11:40.244Z,100451.80
2023-07-06T18:14:14.214Z,100446.80
2023-07-06T18:16:48.108Z,100452.80
2023-07-06T18:19:22.849Z,100453.80
2023-07-06T18:21:58.430Z,100453.60
2023-07-06T18:24:45.950Z,100457.40
2023-07-06T18:27:21.679Z,100460.20
2023-07-06T18:29:56.416Z,100461.00
2023-07-06T18:32:31.503Z,100465.60
2023-07-06T18:35:06.161Z,100463.80
2023-07-06T18:37:40.640Z,100469.00
2023-07-06T18:40:17.208Z,100469.80
2023-07-06T18:42:54.122Z,100473.00
2023-07-06T18:45:43.296Z,100467.40
2023-07-06T18:48:20.898Z,100474.00
2023-07-06T18:50:56.057Z,100473.80
2023-07-06T18:53:45.322Z,100476.80
2023-07-06T18:56:21.169Z,100477.80
2023-07-06T18:58:55.105Z,100479.80
2023-07-06T19:01:30.658Z,100491.20
2023-07-06T19:04:04.756Z,100492.20
2023-07-06T19:06:39.170Z,100490.80
2023-07-06T19:09:12.901Z,100498.00
2023-07-06T19:11:51.806Z,100502.60
2023-07-06T19:14:26.810Z,100504.80
2023-07-06T19:17:16.039Z,100504.00
2023-07-06T19:19:54.438Z,100506.20
2023-07-06T19:22:40.700Z,100511.80
2023-07-06T19:25:15.294Z,100523.60
2023-07-06T19:27:49.259Z,100525.80
2023-07-06T19:30:23.811Z,100529.80
2023-07-06T19:32:59.351Z,100534.40
2023-07-06T19:35:37.852Z,100533.60
2023-07-06T19:38:11.994Z,100538.40
2023-07-06T19:40:57.826Z,100541.20
2023-07-06T19:44:18.258Z,100546.20
2023-07-06T19:46:57.206Z,100543.40
2023-07-06T19:49:50.788Z,100544.40
2023-07-06T19:52:35.001Z,100547.40
2023-07-06T19:55:23.551Z,100546.00
2023-07-06T19:57:59.076Z,100547.80
2023-07-06T20:00:36.520Z,100549.80
2023-07-06T20:03:10.443Z,100553.00
2023-07-06T20:05:44.654Z,100548.80
2023-07-06T20:08:21.300Z,100555.00
2023-07-06T20:11:05.366Z,100555.80
2023-07-06T20:13:42.962Z,100561.20
2023-07-06T20:16:17.001Z,100559.60
2023-07-06T20:18:58.395Z,100562.40
2023-07-06T20:21:57.950Z,100566.00
2023-07-06T20:24:33.077Z,100566.00
2023-07-06T20:27:12.203Z,100570.60
2023-07-06T20:29:47.124Z,100573.80
2023-07-06T20:32:23.278Z,100575.20
2023-07-06T20:35:05.982Z,100577.80
2023-07-06T20:40:28.050Z,100574.00
2023-07-06T20:43:02.248Z,100578.20
2023-07-06T20:45:43.141Z,100583.80
2023-07-06T20:48:37.920Z,100583.60
2023-07-06T20:51:14.442Z,100590.40
2023-07-06T20:53:50.576Z,100589.80
2023-07-06T20:56:25.275Z,100593.00
2023-07-06T20:59:04.149Z,100593.00
2023-07-06T21:01:39.163Z,100597.00
2023-07-06T21:04:16.997Z,100593.80
2023-07-06T21:06:51.295Z,100597.60
2023-07-06T21:09:32.107Z,100596.40
2023-07-06T21:12:07.069Z,100595.40
2023-07-06T21:14:40.856Z,100598.00
2023-07-06T21:17:16.674Z,100596.40
2023-07-06T21:19:52.154Z,100594.00
2023-07-06T21:22:26.510Z,100601.20
2023-07-06T21:25:00.386Z,100602.60
2023-07-06T21:27:34.170Z,100609.80
2023-07-06T21:30:09.345Z,100608.80
2023-07-06T21:32:46.315Z,100613.20
2023-07-06T21:35:20.654Z,100609.00
2023-07-06T21:37:55.322Z,100611.40
2023-07-06T21:40:29.362Z,100613.40
2023-07-06T21:43:02.997Z,100615.00
2023-07-06T21:45:36.731Z,100615.80
2023-07-06T21:48:11.131Z,100623.00
2023-07-06T21:50:44.998Z,100621.20
2023-07-06T21:53:18.932Z,100623.00
2023-07-06T21:55:53.315Z,100624.60
2023-07-06T21:58:30.832Z,100625.20
2023-07-06T22:01:06.060Z,100623.00
2023-07-06T22:03:40.210Z,100625.20
2023-07-06T22:06:27.353Z,100627.40
2023-07-06T22:09:04.995Z,100626.00
2023-07-06T22:11:43.234Z,100631.20
2023-07-06T22:14:25.654Z,100628.60
2023-07-06T22:17:02.935Z,100626.60
2023-07-06T22:19:40.476Z,100626.40
2023-07-06T22:22:25.184Z,100626.40
2023-07-06T22:25:16.137Z,100633.80
2023-07-06T22:27:57.741Z,100630.20
2023-07-06T22:31:13.200Z,100628.60
2023-07-06T22:33:55.826Z,100632.20
2023-07-06T22:36:33.693Z,100630.60
2023-07-06T22:39:23.621Z,100633.80
2023-07-06T22:41:58.542Z,100633.40
2023-07-06T22:44:34.073Z,100631.20
2023-07-06T22:47:08.283Z,100630.00
2023-07-06T22:49:42.097Z,100631.00
2023-07-06T22:52:16.150Z,100629.20
2023-07-06T22:54:49.790Z,100632.40
2023-07-06T22:57:23.545Z,100637.60
2023-07-06T22:59:59.103Z,100645.20
2023-07-06T23:02:34.710Z,100642.00
2023-07-06T23:05:10.963Z,100646.80
2023-07-06T23:07:45.857Z,100642.60
2023-07-06T23:10:20.710Z,100647.40
2023-07-06T23:12:57.425Z,100645.20
2023-07-06T23:15:34.249Z,100645.40
2023-07-06T23:18:08.416Z,100646.00
2023-07-06T23:20:42.118Z,100648.60
2023-07-06T23:23:18.058Z,100652.00
2023-07-06T23:25:53.228Z,100650.00
2023-07-06T23:28:35.024Z,100650.40
2023-07-06T23:31:11.560Z,100652.80
2023-07-06T23:33:45.336Z,100661.00
2023-07-06T23:36:19.856Z,100658.00
2023-07-06T23:38:54.314Z,100657.80
2023-07-06T23:41:28.344Z,100664.60
2023-07-06T23:44:02.147Z,100663.60
2023-07-06T23:46:35.940Z,100656.40
2023-07-06T23:49:10.121Z,100660.80
2023-07-06T23:51:43.814Z,100658.20
2023-07-06T23:54:22.214Z,100663.40
2023-07-06T23:56:56.047Z,100661.00
2023-07-06T23:59:30.191Z,100667.00
